createdAt,value
2023-02-18T00:01:15.876Z,0.87
2023-02-18T00:04:02.119Z,1.40
2023-02-18T00:06:48.480Z,1.20
2023-02-18T00:09:34.621Z,1.13
2023-02-18T00:12:20.875Z,1.10
2023-02-18T00:15:07.921Z,1.20
2023-02-18T00:17:54.160Z,0.93
2023-02-18T00:20:40.389Z,1.30
2023-02-18T00:23:27.064Z,1.00
2023-02-18T00:26:15.285Z,1.10
2023-02-18T00:29:02.468Z,1.20
2023-02-18T00:31:48.943Z,1.20
2023-02-18T00:34:35.818Z,1.00
2023-02-18T00:37:23.502Z,1.30
2023-02-18T00:40:10.649Z,1.37
2023-02-18T00:42:57.139Z,1.00
2023-02-18T00:45:43.589Z,1.00
2023-02-18T00:48:29.808Z,1.53
2023-02-18T00:51:16.644Z,1.13
2023-02-18T00:54:02.802Z,1.20
2023-02-18T00:56:49.437Z,1.40
2023-02-18T00:59:35.773Z,1.60
2023-02-18T01:02:21.895Z,1.57
2023-02-18T01:05:08.416Z,1.60
2023-02-18T01:07:55.191Z,1.50
2023-02-18T01:10:44.781Z,1.57
2023-02-18T01:13:31.616Z,1.50
2023-02-18T01:16:19.398Z,1.50
2023-02-18T01:19:06.127Z,1.47
2023-02-18T01:21:52.351Z,1.80
2023-02-18T01:24:38.671Z,1.20
2023-02-18T01:27:24.897Z,1.30
2023-02-18T01:30:15.433Z,1.30
2023-02-18T01:33:02.121Z,0.90
2023-02-18T01:35:48.925Z,1.43
2023-02-18T01:38:35.799Z,1.50
2023-02-18T01:41:22.165Z,1.50
2023-02-18T01:44:15.875Z,1.20
2023-02-18T01:47:04.916Z,1.47
2023-02-18T01:49:53.203Z,1.33
2023-02-18T01:52:39.766Z,1.30
2023-02-18T01:55:27.371Z,1.40
2023-02-18T01:58:14.659Z,1.70
2023-02-18T02:01:01.026Z,1.27
2023-02-18T02:03:47.523Z,1.27
2023-02-18T02:06:34.973Z,1.30
2023-02-18T02:09:23.918Z,1.70
2023-02-18T02:12:43.968Z,1.47
2023-02-18T02:15:49.251Z,1.50
2023-02-18T02:18:48.055Z,1.30
2023-02-18T02:22:07.398Z,1.70
2023-02-18T02:25:15.753Z,1.50
2023-02-18T02:28:37.428Z,1.60
2023-02-18T02:31:39.177Z,1.70
2023-02-18T02:34:46.679Z,1.33
2023-02-18T02:37:59.314Z,1.40
2023-02-18T02:41:00.559Z,1.63
2023-02-18T02:44:01.421Z,1.50
2023-02-18T02:46:52.842Z,1.50
2023-02-18T02:49:50.278Z,1.30
2023-02-18T02:53:02.223Z,1.57
2023-02-18T02:55:48.850Z,1.50
2023-02-18T02:58:38.626Z,1.20
2023-02-18T03:01:37.821Z,1.47
2023-02-18T03:04:32.665Z,2.10
2023-02-18T03:07:44.376Z,1.50
2023-02-18T03:10:47.722Z,1.50
2023-02-18T03:14:04.654Z,1.70
2023-02-18T03:17:05.575Z,1.67
2023-02-18T03:20:06.141Z,1.43
2023-02-18T03:22:55.631Z,1.60
2023-02-18T03:25:42.491Z,1.63
2023-02-18T03:28:32.231Z,1.50
2023-02-18T03:31:26.218Z,1.67
2023-02-18T03:34:20.848Z,1.70
2023-02-18T03:37:09.851Z,1.90
2023-02-18T03:39:59.823Z,1.93
2023-02-18T03:42:46.876Z,1.87
2023-02-18T03:45:33.425Z,2.20
2023-02-18T03:48:19.935Z,1.67
2023-02-18T03:51:06.064Z,1.80
2023-02-18T03:53:52.555Z,1.73
2023-02-18T03:56:38.708Z,1.93
2023-02-18T03:59:24.960Z,1.83
2023-02-18T04:02:11.150Z,1.80
2023-02-18T04:04:57.651Z,1.77
2023-02-18T04:07:43.966Z,1.80
2023-02-18T04:10:30.555Z,1.60
2023-02-18T04:13:19.912Z,1.60
2023-02-18T04:16:07.041Z,1.60
2023-02-18T04:18:53.813Z,1.50
2023-02-18T04:21:40.142Z,1.80
2023-02-18T04:24:26.317Z,1.53
2023-02-18T04:27:12.848Z,1.67
2023-02-18T04:29:59.656Z,1.53
2023-02-18T04:32:46.248Z,1.70
2023-02-18T04:35:32.572Z,1.40
2023-02-18T04:38:18.726Z,1.50
2023-02-18T04:41:04.907Z,1.40
2023-02-18T04:43:51.465Z,1.20
2023-02-18T04:46:38.011Z,1.87
2023-02-18T04:49:24.237Z,1.70
2023-02-18T04:52:10.448Z,1.50
2023-02-18T04:54:58.038Z,1.40
2023-02-18T04:57:44.218Z,1.80
2023-02-18T05:00:30.540Z,1.63
2023-02-18T05:03:17.167Z,1.87
2023-02-18T05:06:03.676Z,1.50
2023-02-18T05:08:49.987Z,1.40
2023-02-18T05:11:36.539Z,1.60
2023-02-18T05:14:22.839Z,1.47
2023-02-18T05:17:09.393Z,1.63
2023-02-18T05:19:55.771Z,2.07
2023-02-18T05:22:43.011Z,1.27
2023-02-18T05:25:29.503Z,1.57
2023-02-18T05:28:16.074Z,1.33
2023-02-18T05:31:02.719Z,1.97
2023-02-18T05:33:49.438Z,1.70
2023-02-18T05:36:35.475Z,1.80
2023-02-18T05:39:22.114Z,1.57
2023-02-18T05:42:08.488Z,1.60
2023-02-18T05:44:54.944Z,1.40
2023-02-18T05:47:41.272Z,1.50
2023-02-18T05:50:27.712Z,1.70
2023-02-18T05:53:14.483Z,1.30
2023-02-18T05:56:01.853Z,1.83
2023-02-18T05:58:48.047Z,1.40
2023-02-18T06:01:34.286Z,1.40
2023-02-18T06:04:20.704Z,1.50
2023-02-18T06:07:07.016Z,1.50
2023-02-18T06:09:53.898Z,1.93
2023-02-18T06:12:40.419Z,1.60
2023-02-18T06:15:26.609Z,1.60
2023-02-18T06:18:13.009Z,1.67
2023-02-18T06:20:59.295Z,1.60
2023-02-18T06:23:45.514Z,1.80
2023-02-18T06:26:31.974Z,1.63
2023-02-18T06:29:18.332Z,1.57
2023-02-18T06:32:04.732Z,1.47
2023-02-18T06:34:51.314Z,2.13
2023-02-18T06:37:37.578Z,1.20
2023-02-18T06:40:24.024Z,1.50
2023-02-18T06:43:10.377Z,1.30
2023-02-18T06:45:56.999Z,1.47
2023-02-18T06:48:43.171Z,1.60
2023-02-18T06:51:32.697Z,1.37
2023-02-18T06:54:19.323Z,1.80
2023-02-18T06:57:05.791Z,1.40
2023-02-18T06:59:52.996Z,1.50
2023-02-18T07:02:39.513Z,1.30
2023-02-18T07:05:26.012Z,1.30
2023-02-18T07:08:12.576Z,1.30
2023-02-18T07:10:58.910Z,1.37
2023-02-18T07:13:45.116Z,1.47
2023-02-18T07:16:31.467Z,1.90
2023-02-18T07:19:18.297Z,1.87
2023-02-18T07:22:04.996Z,1.20
2023-02-18T07:24:54.905Z,1.10
2023-02-18T07:27:41.615Z,1.57
2023-02-18T07:30:28.014Z,1.90
2023-02-18T07:33:14.702Z,1.50
2023-02-18T07:36:02.048Z,1.40
2023-02-18T07:38:48.542Z,1.30
2023-02-18T07:41:35.036Z,1.30
2023-02-18T07:44:21.215Z,1.57
2023-02-18T07:47:08.937Z,1.50
2023-02-18T07:49:55.495Z,1.40
2023-02-18T07:52:41.793Z,1.27
2023-02-18T07:55:48.025Z,1.70
2023-02-18T07:58:37.181Z,1.80
2023-02-18T08:01:23.518Z,1.40
2023-02-18T08:04:10.039Z,1.70
2023-02-18T08:06:56.565Z,1.80
2023-02-18T08:09:43.136Z,1.70
2023-02-18T08:12:29.693Z,1.53
2023-02-18T08:15:16.451Z,1.40
2023-02-18T08:18:03.236Z,1.83
2023-02-18T08:20:51.758Z,1.70
2023-02-18T08:23:38.556Z,1.63
2023-02-18T08:26:25.513Z,1.50
2023-02-18T08:29:11.836Z,1.80
2023-02-18T08:31:59.531Z,1.60
2023-02-18T08:34:46.188Z,2.10
2023-02-18T08:37:52.685Z,3.07
2023-02-18T08:40:40.833Z,1.30
2023-02-18T08:43:27.050Z,1.60
2023-02-18T08:46:16.529Z,1.60
2023-02-18T08:49:20.886Z,1.40
2023-02-18T08:52:06.961Z,1.50
2023-02-18T08:54:53.327Z,1.80
2023-02-18T08:57:39.761Z,2.27
2023-02-18T09:00:26.384Z,1.40
2023-02-18T09:03:14.661Z,1.90
2023-02-18T09:06:01.705Z,1.23
2023-02-18T09:08:48.340Z,1.40
2023-02-18T09:11:34.678Z,1.17
2023-02-18T09:14:21.434Z,1.17
2023-02-18T09:17:07.660Z,1.73
2023-02-18T09:19:54.320Z,1.23
2023-02-18T09:22:40.785Z,1.10
2023-02-18T09:25:27.074Z,1.17
2023-02-18T09:28:13.552Z,1.40
2023-02-18T09:31:11.910Z,1.20
2023-02-18T09:34:01.848Z,1.40
2023-02-18T09:36:48.264Z,1.30
2023-02-18T09:39:34.866Z,1.50
2023-02-18T09:42:28.138Z,1.33
2023-02-18T09:45:16.499Z,1.57
2023-02-18T09:48:06.217Z,1.10
2023-02-18T09:50:53.706Z,1.27
2023-02-18T09:53:42.404Z,0.87
2023-02-18T09:56:33.720Z,1.30
2023-02-18T09:59:23.194Z,1.30
2023-02-18T10:02:17.426Z,1.30
2023-02-18T10:05:04.875Z,1.57
2023-02-18T10:07:56.444Z,1.33
2023-02-18T10:10:46.416Z,1.30
2023-02-18T10:13:34.741Z,1.00
2023-02-18T10:16:23.299Z,3.77
2023-02-18T10:19:33.138Z,3.50
2023-02-18T10:22:21.432Z,1.80
2023-02-18T10:25:08.735Z,1.60
2023-02-18T10:27:57.360Z,1.40
2023-02-18T10:30:52.762Z,1.43
2023-02-18T10:33:48.038Z,1.10
2023-02-18T10:36:55.894Z,1.30
2023-02-18T10:39:50.992Z,1.17
2023-02-18T10:42:49.705Z,1.23
2023-02-18T10:46:02.146Z,1.30
2023-02-18T10:48:54.557Z,1.40
2023-02-18T10:51:50.260Z,1.27
2023-02-18T10:55:09.315Z,1.23
2023-02-18T10:57:57.204Z,1.10
2023-02-18T11:00:44.800Z,0.80
2023-02-18T11:03:45.918Z,1.13
2023-02-18T11:06:32.472Z,1.30
2023-02-18T11:09:48.055Z,1.20
2023-02-18T11:12:48.008Z,1.20
2023-02-18T11:15:35.600Z,1.10
2023-02-18T11:18:37.847Z,1.40
2023-02-18T11:21:35.851Z,0.97
2023-02-18T11:24:22.057Z,2.03
2023-02-18T11:27:12.492Z,1.50
2023-02-18T11:30:04.019Z,1.40
2023-02-18T11:32:56.880Z,1.50
2023-02-18T11:35:50.242Z,1.80
2023-02-18T11:38:42.066Z,2.10
2023-02-18T11:41:42.415Z,2.00
2023-02-18T11:44:34.293Z,1.67
2023-02-18T11:47:24.057Z,2.27
2023-02-18T11:50:10.414Z,2.63
2023-02-18T11:52:58.994Z,1.87
2023-02-18T11:55:56.267Z,2.53
2023-02-18T11:58:47.999Z,20.67
2023-02-18T12:01:40.559Z,20.37
2023-02-18T12:04:38.933Z,16.40
2023-02-18T12:07:37.627Z,2.80
2023-02-18T12:10:45.908Z,1.80
2023-02-18T12:13:38.071Z,1.20
2023-02-18T12:16:46.564Z,1.60
2023-02-18T12:19:58.955Z,1.27
2023-02-18T12:22:57.593Z,1.20
2023-02-18T12:25:46.658Z,2.17
2023-02-18T12:28:55.607Z,1.20
2023-02-18T12:31:48.030Z,1.50
2023-02-18T12:34:52.911Z,1.40
2023-02-18T12:38:00.668Z,1.43
2023-02-18T12:41:10.336Z,10.87
2023-02-18T12:44:27.510Z,1.73
2023-02-18T12:47:32.466Z,1.20
2023-02-18T12:50:51.395Z,1.40
2023-02-18T12:54:19.349Z,1.20
2023-02-18T12:57:28.815Z,1.73
2023-02-18T13:00:24.572Z,1.50
2023-02-18T13:03:48.450Z,1.40
2023-02-18T13:06:52.811Z,2.43
2023-02-18T13:10:16.989Z,2.00
2023-02-18T13:13:20.447Z,1.70
2023-02-18T13:16:11.838Z,2.33
2023-02-18T13:19:21.688Z,1.60
2023-02-18T13:22:11.860Z,2.93
2023-02-18T13:24:59.706Z,2.00
2023-02-18T13:28:18.590Z,1.60
2023-02-18T13:31:19.336Z,3.30
2023-02-18T13:34:21.484Z,2.33
2023-02-18T13:37:40.818Z,2.60
2023-02-18T13:40:30.537Z,2.83
2023-02-18T13:43:30.338Z,3.50
2023-02-18T13:46:19.841Z,1.70
2023-02-18T13:49:13.491Z,2.00
2023-02-18T13:52:02.826Z,1.80
2023-02-18T13:54:51.761Z,1.30
2023-02-18T13:57:39.178Z,1.60
2023-02-18T14:00:36.423Z,1.80
2023-02-18T14:03:50.383Z,2.43
2023-02-18T14:06:39.067Z,1.90
2023-02-18T14:09:25.605Z,1.70
2023-02-18T14:12:42.514Z,1.70
2023-02-18T14:15:29.964Z,2.10
2023-02-18T14:18:39.423Z,2.00
2023-02-18T14:21:38.188Z,2.00
2023-02-18T14:24:46.744Z,2.23
2023-02-18T14:27:33.577Z,1.90
2023-02-18T14:30:24.771Z,2.37
2023-02-18T14:33:15.877Z,2.03
2023-02-18T14:36:30.440Z,2.30
2023-02-18T14:39:41.311Z,2.10
2023-02-18T14:42:49.243Z,2.27
2023-02-18T14:45:47.667Z,2.87
2023-02-18T14:49:03.180Z,2.67
2023-02-18T14:51:52.086Z,2.70
2023-02-18T14:54:41.347Z,2.83
2023-02-18T14:57:40.859Z,2.03
2023-02-18T15:00:32.236Z,1.60
2023-02-18T15:03:22.215Z,2.03
2023-02-18T15:06:26.587Z,2.53
2023-02-18T15:09:15.107Z,1.70
2023-02-18T15:12:05.551Z,1.60
2023-02-18T15:14:53.700Z,1.70
2023-02-18T15:17:46.136Z,1.60
2023-02-18T15:20:34.922Z,1.50
2023-02-18T15:23:21.493Z,2.00
2023-02-18T15:26:13.199Z,1.50
2023-02-18T15:29:00.896Z,1.40
2023-02-18T15:31:48.857Z,1.43
2023-02-18T15:34:39.520Z,1.83
2023-02-18T15:37:25.696Z,2.60
2023-02-18T15:40:16.679Z,1.97
2023-02-18T15:43:06.113Z,1.73
2023-02-18T15:45:56.010Z,3.57
2023-02-18T15:48:48.203Z,1.90
2023-02-18T15:51:34.659Z,1.60
2023-02-18T15:54:23.131Z,1.70
2023-02-18T15:57:14.541Z,1.80
2023-02-18T16:00:16.085Z,2.27
2023-02-18T16:03:04.252Z,1.50
2023-02-18T16:06:07.000Z,3.03
2023-02-18T16:09:03.736Z,1.40
2023-02-18T16:11:56.979Z,1.83
2023-02-18T16:14:50.148Z,1.90
2023-02-18T16:17:36.623Z,1.93
2023-02-18T16:20:36.360Z,1.80
2023-02-18T16:23:29.974Z,3.40
2023-02-18T16:26:26.636Z,1.80
2023-02-18T16:29:16.501Z,2.77
2023-02-18T16:32:03.572Z,1.90
2023-02-18T16:34:50.159Z,1.97
2023-02-18T16:37:39.497Z,2.83
2023-02-18T16:40:32.588Z,3.47
2023-02-18T16:43:24.918Z,2.83
2023-02-18T16:46:21.713Z,3.23
2023-02-18T16:49:14.074Z,2.00
2023-02-18T16:52:05.679Z,2.70
2023-02-18T16:54:53.441Z,2.10
2023-02-18T16:57:39.705Z,2.27
2023-02-18T17:00:25.998Z,1.70
2023-02-18T17:03:13.274Z,1.87
2023-02-18T17:05:59.898Z,1.90
2023-02-18T17:08:47.193Z,2.13
2023-02-18T17:11:35.383Z,1.83
2023-02-18T17:14:23.466Z,2.23
2023-02-18T17:17:17.872Z,2.60
2023-02-18T17:20:04.676Z,2.73
2023-02-18T17:22:51.393Z,2.17
2023-02-18T17:25:39.974Z,2.10
2023-02-18T17:28:26.521Z,2.43
2023-02-18T17:31:21.184Z,3.03
2023-02-18T17:34:12.389Z,4.77
2023-02-18T17:36:58.969Z,2.70
2023-02-18T17:39:45.204Z,1.93
2023-02-18T17:42:35.442Z,1.90
2023-02-18T17:45:32.740Z,3.93
2023-02-18T17:48:19.597Z,1.70
2023-02-18T17:51:07.592Z,3.17
2023-02-18T17:53:54.265Z,3.70
2023-02-18T17:56:41.659Z,1.70
2023-02-18T17:59:29.856Z,2.87
2023-02-18T18:02:28.473Z,1.83
2023-02-18T18:05:19.967Z,1.93
2023-02-18T18:08:07.549Z,2.30
2023-02-18T18:10:57.140Z,1.97
2023-02-18T18:13:43.905Z,1.90
2023-02-18T18:16:30.087Z,1.90
2023-02-18T18:19:16.546Z,1.67
2023-02-18T18:22:02.996Z,1.53
2023-02-18T18:24:50.250Z,2.00
2023-02-18T18:27:36.601Z,1.97
2023-02-18T18:30:26.063Z,2.20
2023-02-18T18:33:25.152Z,1.80
2023-02-18T18:36:11.629Z,1.77
2023-02-18T18:38:57.961Z,1.90
2023-02-18T18:41:44.049Z,2.30
2023-02-18T18:44:30.412Z,1.87
2023-02-18T18:47:16.876Z,1.83
2023-02-18T18:50:03.150Z,1.80
2023-02-18T18:52:51.803Z,3.63
2023-02-18T18:55:40.717Z,2.93
2023-02-18T18:58:27.147Z,3.70
2023-02-18T19:01:19.541Z,2.33
2023-02-18T19:04:05.781Z,2.87
2023-02-18T19:06:52.400Z,2.37
2023-02-18T19:09:38.906Z,2.80
2023-02-18T19:12:25.180Z,2.23
2023-02-18T19:15:18.532Z,2.37
2023-02-18T19:18:07.053Z,2.40
2023-02-18T19:20:53.839Z,2.90
2023-02-18T19:23:40.829Z,3.17
2023-02-18T19:26:28.039Z,3.77
2023-02-18T19:29:14.620Z,5.20
2023-02-18T19:32:00.903Z,4.00
2023-02-18T19:34:47.285Z,5.73
2023-02-18T19:37:34.868Z,5.03
2023-02-18T19:40:24.121Z,4.10
2023-02-18T19:43:11.490Z,3.40
2023-02-18T19:45:57.804Z,3.10
2023-02-18T19:48:49.401Z,3.23
2023-02-18T19:51:35.717Z,4.03
2023-02-18T19:54:22.258Z,4.37
2023-02-18T19:57:08.436Z,6.33
2023-02-18T19:59:54.758Z,2.90
2023-02-18T20:02:41.856Z,3.10
2023-02-18T20:05:28.156Z,3.70
2023-02-18T20:08:14.604Z,3.03
2023-02-18T20:11:00.767Z,2.70
2023-02-18T20:13:48.490Z,1.97
2023-02-18T20:16:34.676Z,2.50
2023-02-18T20:19:21.711Z,2.93
2023-02-18T20:22:10.281Z,2.90
2023-02-18T20:24:56.561Z,3.30
2023-02-18T20:27:59.559Z,3.53
2023-02-18T20:30:47.287Z,2.63
2023-02-18T20:33:33.837Z,3.00
2023-02-18T20:36:20.151Z,3.90
2023-02-18T20:39:15.600Z,2.20
2023-02-18T20:42:11.157Z,2.97
2023-02-18T20:45:02.081Z,2.50
2023-02-18T20:47:48.652Z,2.63
2023-02-18T20:50:35.048Z,3.00
2023-02-18T20:53:21.329Z,2.20
2023-02-18T20:56:08.477Z,2.30
2023-02-18T20:58:54.943Z,3.30
2023-02-18T21:01:43.256Z,3.37
2023-02-18T21:04:29.568Z,2.73
2023-02-18T21:07:15.783Z,3.57
2023-02-18T21:10:04.042Z,2.57
2023-02-18T21:12:50.301Z,2.13
2023-02-18T21:15:37.466Z,2.73
2023-02-18T21:18:24.619Z,2.90
2023-02-18T21:21:12.101Z,2.47
2023-02-18T21:23:58.598Z,3.30
2023-02-18T21:26:44.877Z,2.53
2023-02-18T21:29:32.260Z,2.33
2023-02-18T21:32:18.856Z,3.30
2023-02-18T21:35:06.209Z,2.60
2023-02-18T21:37:52.762Z,2.87
2023-02-18T21:40:39.055Z,4.13
2023-02-18T21:43:26.636Z,2.40
2023-02-18T21:46:22.558Z,2.63
2023-02-18T21:49:10.783Z,2.00
2023-02-18T21:51:57.638Z,2.00
2023-02-18T21:54:44.573Z,3.10
2023-02-18T21:57:32.154Z,2.67
2023-02-18T22:00:20.753Z,1.97
2023-02-18T22:03:07.670Z,2.10
2023-02-18T22:05:54.273Z,1.80
2023-02-18T22:08:40.482Z,2.30
2023-02-18T22:11:26.907Z,2.83
2023-02-18T22:14:14.972Z,1.90
2023-02-18T22:17:01.344Z,2.17
2023-02-18T22:19:48.746Z,2.33
2023-02-18T22:22:34.987Z,2.47
2023-02-18T22:25:21.385Z,2.20
2023-02-18T22:28:07.594Z,2.30
2023-02-18T22:30:54.048Z,2.47
2023-02-18T22:33:41.277Z,2.40
2023-02-18T22:36:29.346Z,2.70
2023-02-18T22:39:16.444Z,2.20
2023-02-18T22:42:02.919Z,2.40
2023-02-18T22:44:49.378Z,2.23
2023-02-18T22:47:35.711Z,2.27
2023-02-18T22:50:22.432Z,1.97
2023-02-18T22:53:08.755Z,2.60
2023-02-18T22:55:59.677Z,2.40
2023-02-18T22:58:47.875Z,2.60
2023-02-18T23:01:40.092Z,3.50
2023-02-18T23:04:26.584Z,2.50
2023-02-18T23:07:13.078Z,2.47
2023-02-18T23:09:59.307Z,2.20
2023-02-18T23:12:45.691Z,2.83
2023-02-18T23:15:31.965Z,2.50
2023-02-18T23:18:18.227Z,2.70
2023-02-18T23:21:18.407Z,2.90
2023-02-18T23:24:05.255Z,3.20
2023-02-18T23:26:51.638Z,3.47
2023-02-18T23:29:38.203Z,3.13
2023-02-18T23:32:25.854Z,3.00
2023-02-18T23:35:11.999Z,3.17
2023-02-18T23:38:04.408Z,2.70
2023-02-18T23:40:50.972Z,2.63
2023-02-18T23:43:37.451Z,2.80
2023-02-18T23:46:26.475Z,3.00
2023-02-18T23:49:15.438Z,2.97
2023-02-18T23:52:01.920Z,3.33
2023-02-18T23:54:48.348Z,2.47
2023-02-18T23:57:34.961Z,2.60
